Reese River Valley, Nevada Weather observations

Data are for 10 minute period ending at time listed.
 Day   Time   Solar   Ave.   Ave.  Ave.  Vector  Max.   Baro.   Total    
  of    of     Rad.   Air    Rel.  Wind   Wind   Wind  Press.  Precip.   
Year   Day            Temp.  Hum.  Speed  Dir.   Gust                    
2015   (PST)  Kw/m2    F      %     mph   deg.    mph    mb.     in.     
-------------------------------------------------------------------------
 239    0:30   0.00   54.4    32    4.9   193     6.3   821.2    0.00 
 239    0:40   0.00   52.9    34    4.1   201     5.3   821.2    0.00 
 239    0:50   0.00   53.9    35    4.8   213     7.5   821.2    0.00 
 239    1:00   0.00   51.0    39    4.5   200     7.5   821.3    0.00 
 239    1:10   0.00   51.6    36    4.7   203     5.3   821.3    0.00 
 239    1:20   0.00   51.7    37    6.1   217     7.2   821.3    0.00 
 239    1:30   0.00   49.9    42    6.2   220     7.5   821.2    0.00 
 239    1:40   0.00   50.1    40    5.7   203     7.1   821.1    0.00 
 239    1:50   0.00   49.9    39    5.3   194     6.4   821.1    0.00 
 239    2:00   0.00   49.6    44    6.3   208     6.9   821.2    0.00 
 239    2:10   0.00   51.1    44    5.5   200     7.5   821.2    0.00 
 239    2:20   0.00   52.9    40    5.3   206     7.1   821.3    0.00 
 239    2:30   0.00   52.4    42    5.3   207     6.1   821.3    0.00 
 239    2:40   0.00   52.0    43    5.9   229     8.0   821.4    0.00 
 239    2:50   0.00   52.4    41    4.6   211     7.2   821.4    0.00 
 239    3:00   0.00   51.8    43    5.2   225     6.1   821.4    0.00 
 239    3:10   0.00   50.6    44    6.0   233     7.7   821.4    0.00 
 239    3:20   0.00   49.7    44    6.0   222     8.0   821.5    0.00 
 239    3:30   0.00   49.0    46    4.6   218     6.1   821.4    0.00 
 239    3:40   0.00   48.9    44    4.4   197     6.3   821.4    0.00 
 239    3:50   0.00   49.1    44    6.7   214     8.6   821.3    0.00 
 239    4:00   0.00   50.1    42    4.7   200     8.1   821.3    0.00 
 239    4:10   0.00   49.7    43    6.4   218     7.4   821.3    0.00 
 239    4:20   0.00   48.7    46    6.6   223     8.3   821.3    0.00 
 239    4:30   0.00   48.3    47    4.9   209     7.1   821.3    0.00 
 239    4:40   0.00   48.3    47    6.1   210     7.9   821.4    0.00 
 239    4:50   0.00   49.4    45    6.5   206     9.3   821.4    0.00 
 239    5:00   0.00   49.1    46    6.2   213     9.2   821.5    0.00 
 239    5:10   0.00   50.3    43    6.8   207    11.3   821.5    0.00 
 239    5:20   0.01   50.0    43    4.2   186     5.6   821.5    0.00 
 239    5:30   0.01   48.8    44    3.1   183     5.1   821.4    0.00 
 239    5:40   0.02   47.5    49    6.6   226     8.5   821.5    0.00 
 239    5:50   0.02   47.4    51    5.5   217     7.3   821.6    0.00 
 239    6:00   0.08   50.3    47    6.5   208    10.2   821.7    0.00 
 239    6:10   0.12   53.9    42    6.6   222     9.5   821.8    0.00 
 239    6:20   0.15   54.6    43    6.1   237     8.6   821.9    0.00 
 239    6:30   100.00  99999.0   99999  99999.0   99999   99999.0   99999.0   99999.00 
 239    6:40   100.00  99999.0   99999  99999.0   99999   99999.0   99999.0   99999.00 
 239    6:50   100.00  99999.0   99999  99999.0   99999   99999.0   99999.0   99999.00 
 239    7:00   100.00  99999.0   99999  99999.0   99999   99999.0   99999.0   99999.00 
 239    7:10   100.00  99999.0   99999  99999.0   99999   99999.0   99999.0   99999.00 
 239    7:20   100.00  99999.0   99999  99999.0   99999   99999.0   99999.0   99999.00 
 239    7:30   0.37   65.5    31    7.7   218    10.4   822.7    0.00 
 239    7:40   0.41   66.9    30    7.2   219     9.6   822.6    0.00 
 239    7:50   0.45   68.9    27    5.9   207     8.0   822.7    0.00 
 239    8:00   0.49   70.8    26    4.5   220     6.9   822.7    0.00 
 239    8:10   0.52   72.5    22    3.5   198     6.0   822.7    0.00 
 239    8:20   0.55   74.4    20    2.1   188     3.9   822.7    0.00 
 239    8:30   0.58   74.8    21    1.9   265     3.9   822.7    0.00 
 239    8:40   0.62   74.7    20    1.7   352     3.3   822.6    0.00 
 239    8:50   0.65   76.1    20    1.0   250     3.1   822.6    0.00 
 239    9:00   0.69   78.1    20    2.0   135     4.5   822.7    0.00 
 239    9:10   0.73   76.9    21    1.9    58     5.2   822.5    0.00 
 239    9:20   0.77   77.8    21    2.2     3     6.1   822.4    0.00 
 239    9:30   0.76   76.7    22    4.4     9     8.4   822.3    0.00 
 239    9:40   0.69   76.3    24    3.9    25     7.8   822.3    0.00 
 239    9:50   0.82   77.0    23    3.5    37     6.8   822.2    0.00 
 239   10:00   0.86   77.9    21    4.6   328     8.8   822.2    0.00 
 239   10:10   0.90   77.9    22    4.3    52     9.6   822.1    0.00 
 239   10:20   0.30   76.8    24    3.7    20     7.7   822.0    0.00 
 239   10:30   0.49   76.1    25    4.3    13     7.7   821.9    0.00 
 239   10:40   0.29   76.7    25    3.2    69     5.8   821.9    0.00 
 239   10:50   0.43   76.1    25    4.2    29     8.8   821.9    0.00 
 239   11:00   0.89   79.3    20    2.5   256     5.0   821.7    0.00 
 239   11:10   0.99   81.1    22    3.9    64     7.2   821.6    0.00 
 239   11:20   0.97   80.5    20    3.2   101     7.2   821.4    0.00 
 239   11:30   0.97   82.3    15    1.8   194     5.4   821.2    0.00 
 239   11:40   0.99   83.7    16    1.9    11     6.0   821.0    0.00 
 239   11:50   0.86   82.4    16    2.3    19     8.0   820.8    0.00 
 239   12:00   1.00   81.9    19    3.7    77     6.4   820.7    0.00 
 239   12:10   0.68   82.1    17    2.8    50    10.1   820.6    0.00 
 239   12:20   0.19   81.9    15    1.7   179     4.4   820.5    0.00 
 239   12:30   0.20   80.2    21    3.6   344     8.5   820.5    0.00 
 239   12:40   0.46   78.5    25    6.8   291    10.0   820.5    0.00 
 239   12:50   0.45   77.2    26   10.3   308    28.9   820.6    0.00 
 239   13:00   0.82   78.6    23    7.1   320    13.0   820.7    0.00 
 239   13:10   0.94   82.0    20    6.2   340    12.0   820.5    0.00 
 239   13:20   0.40   81.2    21    5.8   334    14.5   820.4    0.00 
 239   13:30   0.28   80.4    21    2.2    29     6.4   820.3    0.00 
 239   13:40   0.41   80.7    24    2.6   296     8.0   820.1    0.00 
 239   13:50   0.27   79.5    23    6.3   261    14.2   820.0    0.00 
 239   14:00   0.22   77.9    25    6.1   238    18.6   820.0    0.00 
 239   14:10   0.26   78.5    25    5.2   217     8.0   819.9    0.00 
 239   14:20   0.19   79.7    19    7.7   196    16.8   819.9    0.00 
 239   14:30   0.15   80.2    17   12.3   167    27.0   819.8    0.00 
 239   14:40   0.14   80.1    17    8.2   156    14.0   819.7    0.00 
 239   14:50   0.11   79.9    19    6.6   158    17.5   819.8    0.00 
 239   15:00   0.15   78.4    22    8.8   145    15.3   819.6    0.00 
 239   15:10   0.16   76.2    25    6.4    89    11.8   819.6    0.00 
 239   15:20   0.27   76.7    28    4.1    56     7.6   819.5    0.00 
 239   15:30   0.17   76.0    29    6.4    56    10.7   819.4    0.00 
 239   15:40   0.18   75.1    28    7.5    59    10.4   819.3    0.00 
 239   15:50   0.54   77.7    26    5.3    61     9.0   819.3    0.00 
 239   16:00   0.35   79.4    25    5.1    68    10.3   819.2    0.00 
 239   16:10   0.14   77.6    25    5.4    79     8.9   819.1    0.00 
 239   16:20   0.14   76.6    26    4.1    83     6.6   819.1    0.00 
 239   16:30   0.12   76.6    27    3.1    89     4.5   819.0    0.00 
 239   16:40   0.21   76.6    24    4.4   100     9.6   819.0    0.00 
 239   16:50   0.18   79.5    24    2.9    86     5.0   819.0    0.00 
 239   17:00   0.24   78.9    24    3.3    92     5.0   819.0    0.00 
 239   17:10   0.22   79.6    24    3.5    77     6.9   818.9    0.00 
 239   17:20   0.18   79.3    22    3.8    60     6.1   818.9    0.00 
 239   17:30   0.15   78.2    23    4.6    30     8.0   818.8    0.00 
 239   17:40   0.11   76.9    24    6.3     7     9.7   818.8    0.00 
 239   17:50   0.05   76.3    23    6.2     5     9.8   818.8    0.00 
 239   18:00   0.06   75.8    23    5.4     2     8.0   818.8    0.00 
 239   18:10   0.03   75.6    22    5.2   345     7.3   818.9    0.00 
 239   18:20   0.01   73.8    23    3.9   346     5.3   818.9    0.00 
 239   18:30   0.01   72.0    25    1.5   316     3.1   819.0    0.00 
 239   18:40   0.00   68.3    32    2.8   106     4.2   819.1    0.00 
 239   18:50   0.00   67.9    29    3.6    81     4.7   819.1    0.00 
 239   19:00   0.00   69.3    26    3.6    57     4.5   819.2    0.00 
 239   19:10   0.00   70.9    25    3.8   342     4.7   819.4    0.00 
 239   19:20   0.00   68.8    27    3.5   327     5.0   819.5    0.00 
 239   19:30   0.00   66.0    30    1.6   276     3.7   819.5    0.00 
 239   19:40   0.00   63.8    31    0.6   217     1.6   819.6    0.00 
 239   19:50   0.00   64.7    29    0.7   215     1.7   819.8    0.00 
 239   20:00   0.00   64.3    34    2.9   136     4.4   820.0    0.00 
 239   20:10   0.00   60.8    36    4.2   145     5.8   820.0    0.00 
 239   20:20   0.00   58.6    33    5.5   160     6.4   820.0    0.00 
 239   20:30   0.00   58.1    34    4.6   162     5.4   820.1    0.00 
 239   20:40   0.00   57.0    41    4.9   196     6.2   820.1    0.00 
 239   20:50   0.00   55.9    39    4.7   170     5.6   820.1    0.00 
 239   21:00   0.00   55.7    43    3.5   181     5.6   820.0    0.00 
 239   21:10   0.00   54.7    45    3.8   196     4.7   820.1    0.00 
 239   21:20   0.00   53.3    50    3.7   222     4.5   820.1    0.00 
 239   21:30   0.00   53.8    45    5.1   217     7.6   820.0    0.00 
 239   21:40   0.00   54.8    47    5.9   214     7.4   819.9    0.00 
 239   21:50   0.00   55.2    44    6.0   179     7.8   819.9    0.00 
 239   22:00   0.00   58.3    36    6.2   167     7.4   819.9    0.00 
 239   22:10   0.00   56.9    40    4.7   160     5.9   819.9    0.00 
 239   22:20   0.00   56.0    39    5.5   184     7.0   819.9    0.00 
 239   22:30   0.00   58.0    36    6.0   174     7.7   819.9    0.00 
 239   22:40   0.00   56.9    41    3.2   203     5.4   819.9    0.00 
 239   22:50   0.00   54.2    45    4.2   189     6.4   819.9    0.00 
 239   23:00   0.00   55.2    41    4.6   170     6.6   819.9    0.00 
 239   23:10   0.00   55.3    44    6.0   186     7.6   819.9    0.00 
 239   23:20   0.00   55.8    45    4.6   224     6.9   819.9    0.00 
 239   23:30   0.00   53.7    50    6.3   244     7.5   819.9    0.00 
 239   23:40   0.00   53.4    49    5.2   220     6.4   820.0    0.00 
 239   23:50   0.00   55.3    43    5.8   188     6.7   819.9    0.00 
 240    0:00   0.00   55.1    46    5.3   220     7.3   819.9    0.00 
 240    0:10   0.00   54.0    46    6.1   239     7.5   819.9    0.00 
 240    0:20   0.00   54.2    43    4.6   200     5.7   819.8    0.00 

Return to Reese River Valley graphs page.


Western Regional Climate Center,wrcc@dri.edu